Time;durP1;ratioP1;P1;durP2;ratioP2;P2;SDS_P1;SDS_P2;PMS_P1;PMS_P2;Temp;Humidity;BMP_temperature;BMP_pressure;BME280_temperature;BME280_humidity;BME280_pressure;Samples;Min_cycle;Max_cycle;Signal;HPM_P1;HPM_P2
2024/03/30 00:01:31;;;;;;;4.88;2.92;;;9.80;99.90;;;;;;5006288;28;20076;-54
2024/03/30 00:03:57;;;;;;;3.30;2.50;;;9.90;99.90;;;;;;4999706;28;20374;-53
2024/03/30 00:06:22;;;;;;;4.80;2.95;;;9.90;99.90;;;;;;5002461;28;20053;-52
2024/03/30 00:08:48;;;;;;;4.20;3.05;;;9.90;99.90;;;;;;5003987;28;20015;-54
2024/03/30 00:11:14;;;;;;;5.00;2.65;;;9.90;99.90;;;;;;5005402;28;20025;-53
2024/03/30 00:13:39;;;;;;;4.57;3.05;;;9.90;99.90;;;;;;5005798;28;20374;-52
2024/03/30 00:16:09;;;;;;;3.92;2.95;;;9.90;99.90;;;;;;5004043;28;20069;-48
2024/03/30 00:18:36;;;;;;;4.97;3.28;;;9.90;99.90;;;;;;5005383;28;20030;-51
2024/03/30 00:21:04;;;;;;;4.60;3.10;;;9.80;99.90;;;;;;5006909;28;20034;-50
2024/03/30 00:23:30;;;;;;;6.03;3.25;;;9.70;99.90;;;;;;5007369;28;20037;-49
2024/03/30 00:25:56;;;;;;;4.80;3.08;;;9.60;99.90;;;;;;5009044;28;20026;-50
2024/03/30 00:28:23;;;;;;;6.43;3.38;;;9.60;99.90;;;;;;5001468;28;20031;-51
2024/03/30 00:30:48;;;;;;;4.88;2.85;;;9.60;99.90;;;;;;5003891;28;20383;-52
2024/03/30 00:33:15;;;;;;;6.25;3.42;;;9.60;99.90;;;;;;4998684;28;20076;-56
2024/03/30 00:35:42;;;;;;;6.90;3.67;;;9.60;99.90;;;;;;4999751;28;20504;-51
2024/03/30 00:38:07;;;;;;;5.07;3.58;;;9.60;99.90;;;;;;5004206;28;20153;-52
2024/03/30 00:40:34;;;;;;;6.15;3.88;;;9.60;99.90;;;;;;5006455;28;20068;-50
2024/03/30 00:43:00;;;;;;;7.03;3.83;;;9.50;99.90;;;;;;5009842;28;20044;-52
2024/03/30 00:45:26;;;;;;;7.65;3.70;;;9.50;99.90;;;;;;5011374;28;20033;-50
2024/03/30 00:47:51;;;;;;;6.97;4.18;;;9.50;99.90;;;;;;4998577;28;20402;-50
2024/03/30 00:50:17;;;;;;;7.07;4.07;;;9.50;99.90;;;;;;4999985;28;20490;-50
2024/03/30 00:52:42;;;;;;;10.77;4.55;;;9.40;99.90;;;;;;5011826;28;20381;-49
2024/03/30 00:55:08;;;;;;;8.40;4.20;;;9.40;99.90;;;;;;5004101;28;20037;-49
2024/03/30 00:57:33;;;;;;;7.35;4.30;;;9.40;99.90;;;;;;4992114;28;20034;-52
2024/03/30 00:59:59;;;;;;;7.45;4.32;;;9.30;99.90;;;;;;5006593;28;20037;-54
2024/03/30 01:02:24;;;;;;;9.30;5.10;;;9.30;99.90;;;;;;5005543;28;20436;-49
2024/03/30 01:04:50;;;;;;;7.70;4.43;;;9.20;99.90;;;;;;5004979;28;20486;-50
2024/03/30 01:07:16;;;;;;;5.65;3.88;;;9.20;99.90;;;;;;5003085;28;20494;-49
2024/03/30 01:09:41;;;;;;;7.15;4.60;;;9.20;99.90;;;;;;5011680;28;20029;-49
2024/03/30 01:12:07;;;;;;;9.48;4.97;;;9.20;99.90;;;;;;5005636;28;20681;-49
2024/03/30 01:14:35;;;;;;;12.85;5.22;;;9.20;99.90;;;;;;5010726;28;20109;-53
2024/03/30 01:17:01;;;;;;;9.88;4.90;;;9.20;99.90;;;;;;5009877;28;20030;-53
2024/03/30 01:19:27;;;;;;;9.43;5.25;;;9.10;99.90;;;;;;5008409;28;20050;-53
2024/03/30 01:21:53;;;;;;;9.15;5.82;;;9.10;99.90;;;;;;5004035;28;20030;-53
2024/03/30 01:24:19;;;;;;;7.63;5.57;;;9.20;99.90;;;;;;5003976;28;20370;-49
2024/03/30 01:26:53;;;;;;;9.15;5.82;;;9.20;99.90;;;;;;5000234;28;20109;-49
2024/03/30 01:29:23;;;;;;;11.85;5.80;;;9.10;99.90;;;;;;5008940;28;20018;-49
2024/03/30 01:31:49;;;;;;;11.43;5.85;;;9.10;99.90;;;;;;5006591;28;20467;-49
2024/03/30 01:34:15;;;;;;;9.73;6.50;;;9.10;99.90;;;;;;5008236;28;20352;-50
2024/03/30 01:36:41;;;;;;;9.85;6.05;;;9.10;99.90;;;;;;5003728;28;20033;-52
2024/03/30 01:39:06;;;;;;;7.68;5.45;;;9.10;99.90;;;;;;5010780;28;20030;-53
2024/03/30 01:41:34;;;;;;;9.07;5.78;;;9.00;99.90;;;;;;5004459;28;20049;-54
2024/03/30 01:44:01;;;;;;;10.60;5.90;;;9.00;99.90;;;;;;5004889;28;20390;-49
2024/03/30 01:46:27;;;;;;;11.18;5.97;;;9.00;99.90;;;;;;5009589;28;20056;-56
2024/03/30 01:48:54;;;;;;;13.48;6.72;;;9.00;99.90;;;;;;5009558;28;20030;-56
2024/03/30 01:51:19;;;;;;;10.57;6.05;;;9.00;99.90;;;;;;5006230;28;20553;-54
2024/03/30 01:53:46;;;;;;;8.57;5.80;;;8.90;99.90;;;;;;5010819;28;20128;-54
2024/03/30 01:56:11;;;;;;;9.48;5.53;;;8.90;99.90;;;;;;5007266;28;20030;-55
2024/03/30 01:58:37;;;;;;;10.75;6.38;;;8.90;99.90;;;;;;5010706;28;20038;-56
2024/03/30 02:01:03;;;;;;;12.45;6.32;;;8.90;99.90;;;;;;5006843;28;20041;-55
2024/03/30 02:03:29;;;;;;;9.73;5.82;;;9.00;99.90;;;;;;5010220;28;20065;-53
2024/03/30 02:05:55;;;;;;;8.23;5.43;;;9.00;99.90;;;;;;5009573;28;20068;-53
2024/03/30 02:08:23;;;;;;;7.82;4.80;;;8.90;99.90;;;;;;5009837;28;20556;-51
2024/03/30 02:10:49;;;;;;;8.02;5.32;;;8.90;99.90;;;;;;5010941;28;20022;-55
2024/03/30 02:13:15;;;;;;;6.55;4.20;;;8.90;99.90;;;;;;5010835;28;20045;-54
2024/03/30 02:15:41;;;;;;;6.13;4.43;;;8.90;99.90;;;;;;5004036;28;20032;-53
2024/03/30 02:18:07;;;;;;;10.77;5.85;;;8.90;99.90;;;;;;5003859;28;20101;-50
2024/03/30 02:20:32;;;;;;;7.07;4.68;;;8.90;99.90;;;;;;5008185;28;20038;-56
2024/03/30 02:22:58;;;;;;;8.48;5.05;;;8.90;99.90;;;;;;5007115;28;20076;-53
2024/03/30 02:25:23;;;;;;;8.82;4.78;;;8.90;99.90;;;;;;5004699;28;20022;-51
2024/03/30 02:27:50;;;;;;;7.40;4.75;;;8.90;99.90;;;;;;5010445;28;20058;-54
2024/03/30 02:30:29;;;;;;;11.68;5.35;;;8.90;99.90;;;;;;5008291;28;20037;-51
2024/03/30 02:32:57;;;;;;;7.40;4.88;;;8.90;99.90;;;;;;5008569;28;20042;-55
2024/03/30 02:35:22;;;;;;;6.90;4.82;;;9.00;99.90;;;;;;5006688;28;20022;-55
2024/03/30 02:37:49;;;;;;;7.85;4.20;;;8.90;99.90;;;;;;4994110;28;20025;-55
2024/03/30 02:40:15;;;;;;;8.85;5.00;;;9.00;99.90;;;;;;4991848;28;20026;-54
2024/03/30 02:42:41;;;;;;;6.85;4.53;;;9.00;99.90;;;;;;5008135;28;20022;-55
2024/03/30 02:45:08;;;;;;;7.00;4.95;;;9.10;99.90;;;;;;5009471;28;20109;-51
2024/03/30 02:47:33;;;;;;;9.35;4.75;;;9.20;99.90;;;;;;5008525;28;20038;-54
2024/03/30 02:49:59;;;;;;;7.30;4.47;;;9.20;99.90;;;;;;5010424;28;20033;-50
2024/03/30 02:52:25;;;;;;;8.48;4.70;;;9.10;99.90;;;;;;5013664;28;20117;-54
2024/03/30 02:54:50;;;;;;;10.05;4.93;;;9.10;99.90;;;;;;5010231;28;20095;-55
2024/03/30 02:57:16;;;;;;;11.02;4.30;;;9.10;99.90;;;;;;5012012;28;20118;-54
2024/03/30 02:59:42;;;;;;;6.85;4.90;;;9.10;99.90;;;;;;5011577;28;20057;-55
2024/03/30 03:02:08;;;;;;;8.60;4.72;;;9.10;99.90;;;;;;5009543;28;20385;-53
2024/03/30 03:04:33;;;;;;;8.23;4.78;;;9.10;99.90;;;;;;5012003;28;20021;-53
2024/03/30 03:06:59;;;;;;;8.70;5.15;;;9.00;99.90;;;;;;5013699;28;20033;-51
2024/03/30 03:09:25;;;;;;;10.02;4.57;;;8.90;99.90;;;;;;5009328;28;20025;-55
2024/03/30 03:11:50;;;;;;;6.57;4.45;;;8.80;99.90;;;;;;5013246;28;20029;-53
2024/03/30 03:14:16;;;;;;;6.15;4.30;;;8.90;99.90;;;;;;5012414;28;20026;-56
2024/03/30 03:16:41;;;;;;;9.38;5.45;;;8.80;99.90;;;;;;5011743;28;20041;-57
2024/03/30 03:19:07;;;;;;;6.38;4.15;;;8.80;99.90;;;;;;5012025;28;20029;-53
2024/03/30 03:21:33;;;;;;;7.13;4.60;;;8.70;99.90;;;;;;5013441;28;20076;-54
2024/03/30 03:23:58;;;;;;;8.38;5.25;;;8.70;99.90;;;;;;5012687;28;20061;-53
2024/03/30 03:26:24;;;;;;;10.18;5.10;;;8.70;99.90;;;;;;5013275;28;20026;-52
2024/03/30 03:28:49;;;;;;;8.43;4.75;;;8.70;99.90;;;;;;5010765;28;20041;-54
2024/03/30 03:31:15;;;;;;;7.53;4.90;;;8.80;99.90;;;;;;5006751;28;20505;-53
2024/03/30 03:33:40;;;;;;;7.70;5.15;;;8.70;99.90;;;;;;5010023;28;20037;-55
2024/03/30 03:36:06;;;;;;;7.40;5.15;;;8.70;99.90;;;;;;5006789;28;20038;-54
2024/03/30 03:38:32;;;;;;;13.10;6.25;;;8.70;99.90;;;;;;5013152;28;20026;-53
2024/03/30 03:40:58;;;;;;;9.02;5.35;;;8.80;99.90;;;;;;5010537;28;20525;-55
2024/03/30 03:43:23;;;;;;;7.65;4.82;;;8.70;99.90;;;;;;5013140;28;20053;-53
2024/03/30 03:45:49;;;;;;;12.93;5.22;;;8.70;99.90;;;;;;5010111;28;20030;-55
2024/03/30 03:48:14;;;;;;;9.50;5.13;;;8.80;99.90;;;;;;4988356;28;20027;-55
2024/03/30 03:50:41;;;;;;;9.20;4.78;;;8.70;99.90;;;;;;5007217;28;20502;-51
2024/03/30 03:53:07;;;;;;;9.80;5.28;;;8.80;99.90;;;;;;5012467;28;20437;-50
2024/03/30 03:55:33;;;;;;;7.95;5.60;;;8.80;99.90;;;;;;5010975;28;20396;-53
2024/03/30 03:57:59;;;;;;;9.18;5.15;;;8.80;99.90;;;;;;5009557;28;20502;-54
2024/03/30 04:00:25;;;;;;;10.10;5.25;;;8.90;99.90;;;;;;5011853;28;20029;-52
2024/03/30 04:02:51;;;;;;;6.82;4.70;;;8.90;99.90;;;;;;5009885;28;20379;-54
2024/03/30 04:05:16;;;;;;;7.55;4.93;;;8.90;99.90;;;;;;5010925;28;20022;-54
2024/03/30 04:07:42;;;;;;;7.82;4.43;;;8.90;99.90;;;;;;4977292;28;20033;-55
2024/03/30 04:10:09;;;;;;;7.93;4.97;;;9.00;99.90;;;;;;5010890;28;20046;-50
2024/03/30 04:12:35;;;;;;;6.47;4.43;;;9.00;99.90;;;;;;5009963;28;20038;-53
2024/03/30 04:15:01;;;;;;;7.78;4.40;;;9.00;99.90;;;;;;5003753;28;20040;-55
2024/03/30 04:17:26;;;;;;;8.30;4.22;;;9.00;99.90;;;;;;5003792;28;20060;-54
2024/03/30 04:19:52;;;;;;;7.07;4.10;;;9.00;99.90;;;;;;5009654;28;20034;-52
2024/03/30 04:22:17;;;;;;;8.27;3.60;;;9.00;99.90;;;;;;5006384;28;20080;-50
2024/03/30 04:24:43;;;;;;;6.78;4.47;;;9.00;99.90;;;;;;5009825;28;20022;-54
2024/03/30 04:27:09;;;;;;;7.20;4.20;;;9.00;99.90;;;;;;5005551;28;20057;-52
2024/03/30 04:29:34;;;;;;;7.93;4.10;;;9.00;99.90;;;;;;5006269;28;20022;-50
2024/03/30 04:32:00;;;;;;;8.80;4.03;;;9.10;99.90;;;;;;5006263;28;20545;-56
2024/03/30 04:34:25;;;;;;;5.35;3.35;;;9.10;99.90;;;;;;5005595;28;20581;-54
2024/03/30 04:36:51;;;;;;;8.93;3.58;;;9.10;99.90;;;;;;5006027;28;20053;-53
2024/03/30 04:39:16;;;;;;;4.72;3.13;;;9.10;99.90;;;;;;4998148;28;20030;-55
2024/03/30 04:41:42;;;;;;;6.10;3.30;;;9.10;99.90;;;;;;5008893;28;20033;-55
2024/03/30 04:44:08;;;;;;;6.05;3.40;;;9.00;99.90;;;;;;5006058;28;20026;-53
2024/03/30 04:46:33;;;;;;;6.93;2.80;;;9.00;99.90;;;;;;5006111;28;20029;-53
2024/03/30 04:48:59;;;;;;;7.72;2.92;;;9.10;99.90;;;;;;5004124;28;20030;-52
2024/03/30 04:51:24;;;;;;;4.50;2.60;;;9.10;99.90;;;;;;5011346;28;20156;-51
2024/03/30 04:53:50;;;;;;;5.75;2.55;;;9.10;99.90;;;;;;5008902;28;20033;-52
2024/03/30 04:56:15;;;;;;;6.35;2.90;;;9.10;99.90;;;;;;5005832;28;20030;-50
2024/03/30 04:58:41;;;;;;;4.15;2.80;;;9.10;99.90;;;;;;5011596;28;20017;-53
2024/03/30 05:01:08;;;;;;;12.15;2.63;;;9.20;99.90;;;;;;4989253;28;20114;-54
2024/03/30 05:03:35;;;;;;;3.45;2.13;;;9.10;99.90;;;;;;5005977;28;20559;-55
2024/03/30 05:06:02;;;;;;;5.53;2.25;;;9.20;99.90;;;;;;5002411;28;20110;-53
2024/03/30 05:08:27;;;;;;;3.53;2.65;;;9.10;99.90;;;;;;5010340;28;20045;-52
2024/03/30 05:10:53;;;;;;;5.63;1.90;;;9.20;99.90;;;;;;5010928;28;20038;-51
2024/03/30 05:13:20;;;;;;;5.18;2.42;;;9.20;99.90;;;;;;5009066;28;20032;-53
2024/03/30 05:15:46;;;;;;;7.53;2.13;;;9.20;99.90;;;;;;5000366;28;20085;-51
2024/03/30 05:18:12;;;;;;;7.40;1.63;;;9.20;99.90;;;;;;4988957;28;20025;-52
2024/03/30 05:20:53;;;;;;;4.22;2.15;;;9.20;99.90;;;;;;5007512;28;20028;-50
2024/03/30 05:23:25;;;;;;;4.82;1.83;;;9.30;99.90;;;;;;4994772;28;20025;-57
2024/03/30 05:25:51;;;;;;;8.07;1.90;;;9.40;99.90;;;;;;4995610;28;20040;-52
2024/03/30 05:28:22;;;;;;;4.03;1.88;;;9.50;99.90;;;;;;5006381;28;20773;-53
2024/03/30 05:30:49;;;;;;;4.95;1.50;;;9.50;99.90;;;;;;5004934;28;20031;-50
2024/03/30 05:33:15;;;;;;;3.42;1.45;;;9.40;99.90;;;;;;5002233;28;20021;-54
2024/03/30 05:35:40;;;;;;;4.15;1.63;;;9.40;99.90;;;;;;5003845;28;20033;-54
2024/03/30 05:38:07;;;;;;;6.90;1.63;;;9.40;99.90;;;;;;5008955;28;20406;-53
2024/03/30 05:40:34;;;;;;;2.75;1.42;;;9.40;99.90;;;;;;5006073;28;20472;-54
2024/03/30 05:43:03;;;;;;;6.70;1.80;;;9.50;99.90;;;;;;5004058;28;20014;-54
2024/03/30 05:45:30;;;;;;;8.82;2.10;;;9.50;99.90;;;;;;5006108;28;20033;-54
2024/03/30 05:47:56;;;;;;;3.38;1.75;;;9.50;99.90;;;;;;5004086;28;20494;-54
2024/03/30 05:50:23;;;;;;;6.93;1.40;;;9.60;99.90;;;;;;5002874;28;20056;-52
2024/03/30 05:52:48;;;;;;;3.00;1.85;;;9.60;99.90;;;;;;5007484;28;20053;-54
2024/03/30 05:55:14;;;;;;;5.07;1.52;;;9.60;99.90;;;;;;5007634;28;20533;-55
2024/03/30 05:57:40;;;;;;;3.72;1.38;;;9.70;99.90;;;;;;5007698;28;20041;-54
2024/03/30 06:00:09;;;;;;;4.50;1.60;;;9.70;99.90;;;;;;5007056;28;20029;-54
2024/03/30 06:02:35;;;;;;;4.65;1.58;;;9.70;99.90;;;;;;5002117;28;20030;-54
2024/03/30 06:05:01;;;;;;;3.40;1.15;;;9.80;99.90;;;;;;5006615;28;20029;-53
2024/03/30 06:07:27;;;;;;;4.35;1.30;;;9.90;99.90;;;;;;5006691;28;20482;-53
2024/03/30 06:09:52;;;;;;;4.00;2.10;;;10.00;99.90;;;;;;5010156;28;20037;-52
2024/03/30 06:12:18;;;;;;;3.78;1.10;;;10.00;99.90;;;;;;5006785;28;20033;-51
2024/03/30 06:14:46;;;;;;;4.05;1.42;;;10.10;99.90;;;;;;5008796;28;20106;-53
2024/03/30 06:17:12;;;;;;;6.10;1.67;;;10.20;99.90;;;;;;5005730;28;20030;-50
2024/03/30 06:19:38;;;;;;;6.25;1.52;;;10.30;99.90;;;;;;5007386;28;20034;-54
2024/03/30 06:22:04;;;;;;;8.30;1.85;;;10.30;99.90;;;;;;5010680;28;20022;-53
2024/03/30 06:24:30;;;;;;;3.67;1.25;;;10.50;99.90;;;;;;5010746;28;20496;-53
2024/03/30 06:26:55;;;;;;;3.58;1.13;;;10.60;99.90;;;;;;5007174;28;20022;-55
2024/03/30 06:29:21;;;;;;;9.02;1.52;;;10.70;99.90;;;;;;5010382;28;20031;-56
2024/03/30 06:31:46;;;;;;;1.42;0.85;;;10.80;99.90;;;;;;5011318;28;20033;-55
2024/03/30 06:34:12;;;;;;;2.28;1.02;;;10.90;99.90;;;;;;5010154;28;20033;-54
2024/03/30 06:36:37;;;;;;;5.07;1.25;;;10.90;99.90;;;;;;5008852;28;20022;-56
2024/03/30 06:39:03;;;;;;;3.20;0.85;;;11.00;99.90;;;;;;5008785;28;20109;-53
2024/03/30 06:44:14;;;;;;;2.13;0.90;;;11.00;99.90;;;;;;5004679;28;20040;-57
2024/03/30 06:46:40;;;;;;;2.42;1.15;;;11.00;99.90;;;;;;5011104;28;20025;-57
2024/03/30 06:49:06;;;;;;;4.65;0.90;;;10.90;99.90;;;;;;5013210;28;20034;-54
2024/03/30 06:51:31;;;;;;;5.13;1.00;;;10.90;99.90;;;;;;5010003;28;20375;-52
2024/03/30 06:53:57;;;;;;;3.22;1.55;;;10.90;99.90;;;;;;5012155;28;20026;-54
2024/03/30 06:56:23;;;;;;;5.15;1.33;;;10.80;99.90;;;;;;5012290;28;20014;-56
2024/03/30 06:58:49;;;;;;;3.80;1.25;;;10.80;99.90;;;;;;5012989;28;21289;-57
2024/03/30 07:01:15;;;;;;;8.75;1.17;;;10.70;99.90;;;;;;5013779;28;20511;-57
2024/03/30 07:03:40;;;;;;;5.53;1.10;;;10.80;99.90;;;;;;5009984;28;20022;-56
2024/03/30 07:06:06;;;;;;;3.40;1.25;;;10.80;99.90;;;;;;5010764;28;20417;-55
2024/03/30 07:08:32;;;;;;;4.32;1.00;;;10.90;99.90;;;;;;5010746;28;20084;-55
2024/03/30 07:10:58;;;;;;;4.28;1.00;;;10.90;99.90;;;;;;5012053;28;20034;-52
2024/03/30 07:13:23;;;;;;;4.78;0.98;;;10.90;99.90;;;;;;5013604;28;20022;-56
2024/03/30 07:15:49;;;;;;;2.05;1.05;;;10.80;99.90;;;;;;5010630;28;20029;-56
2024/03/30 07:18:14;;;;;;;4.65;1.20;;;10.90;99.90;;;;;;5004247;28;20037;-54
2024/03/30 07:20:40;;;;;;;6.50;1.58;;;10.90;99.90;;;;;;5011132;28;20561;-54
2024/03/30 07:23:06;;;;;;;3.83;1.35;;;11.00;99.90;;;;;;5010477;28;20033;-55
2024/03/30 07:25:35;;;;;;;4.22;2.22;;;11.00;99.90;;;;;;5007706;28;20026;-54
2024/03/30 07:28:01;;;;;;;8.85;1.48;;;11.10;99.90;;;;;;5003834;28;20406;-54
2024/03/30 07:30:26;;;;;;;5.97;1.50;;;11.10;99.90;;;;;;5007614;28;20088;-56
2024/03/30 07:32:52;;;;;;;4.13;1.15;;;11.20;99.90;;;;;;5010591;28;20034;-54
2024/03/30 07:35:17;;;;;;;5.50;1.42;;;11.30;99.90;;;;;;5008098;28;20035;-55
2024/03/30 07:37:43;;;;;;;6.68;1.50;;;11.40;99.90;;;;;;5007590;28;20030;-53
2024/03/30 07:40:09;;;;;;;4.75;1.10;;;11.40;99.90;;;;;;5001498;28;20110;-54
2024/03/30 07:42:34;;;;;;;6.07;1.02;;;11.50;99.90;;;;;;5005543;28;20563;-55
2024/03/30 07:45:00;;;;;;;4.60;1.55;;;11.60;99.90;;;;;;5006275;28;20030;-56
2024/03/30 07:47:26;;;;;;;10.35;1.15;;;11.60;99.90;;;;;;5027592;23;20038;-83
2024/03/30 07:49:51;;;;;;;10.45;2.10;;;11.70;99.90;;;;;;5004814;28;20026;-84
2024/03/30 07:52:17;;;;;;;10.20;1.75;;;11.80;99.90;;;;;;5006010;28;20073;-83
2024/03/30 07:54:42;;;;;;;5.25;1.33;;;11.90;99.90;;;;;;5004646;28;20026;-84
2024/03/30 07:57:08;;;;;;;10.60;1.52;;;12.00;99.90;;;;;;4989628;28;20026;-84
2024/03/30 07:59:33;;;;;;;4.13;1.23;;;12.10;99.90;;;;;;4988822;28;20030;-85
2024/03/30 08:01:59;;;;;;;3.58;1.00;;;12.40;99.90;;;;;;4989008;28;20030;-83
2024/03/30 08:04:24;;;;;;;8.93;1.98;;;12.40;99.90;;;;;;4988832;28;20525;-83
2024/03/30 08:06:53;;;;;;;14.02;1.58;;;12.60;99.90;;;;;;4988195;28;20384;-84
2024/03/30 08:09:19;;;;;;;10.25;1.40;;;12.80;99.90;;;;;;5006170;28;20097;-84
2024/03/30 08:11:44;;;;;;;6.13;1.27;;;12.80;99.90;;;;;;4988009;28;20054;-85
2024/03/30 08:14:11;;;;;;;6.97;1.20;;;12.90;99.90;;;;;;4988186;28;20033;-84
2024/03/30 08:16:36;;;;;;;3.75;1.50;;;13.10;99.90;;;;;;4987924;28;20026;-84
2024/03/30 08:19:04;;;;;;;7.60;1.83;;;13.10;99.90;;;;;;4988060;28;20041;-84
2024/03/30 08:21:32;;;;;;;12.45;1.63;;;13.20;99.90;;;;;;4988507;28;20027;-85
2024/03/30 08:23:58;;;;;;;6.85;1.70;;;13.40;99.90;;;;;;4989112;28;20030;-84
2024/03/30 08:26:24;;;;;;;10.57;2.28;;;13.40;99.90;;;;;;4987331;28;20426;-84
2024/03/30 08:28:49;;;;;;;13.40;1.92;;;13.60;99.90;;;;;;5005733;28;20145;-84
2024/03/30 08:31:16;;;;;;;14.75;2.45;;;13.70;99.90;;;;;;4988314;28;20022;-83
2024/03/30 08:33:42;;;;;;;7.10;2.30;;;13.80;99.90;;;;;;5004917;28;20025;-83
2024/03/30 08:36:08;;;;;;;7.13;1.73;;;13.90;99.90;;;;;;4995913;28;20022;-83
2024/03/30 08:38:33;;;;;;;11.27;2.05;;;14.10;99.90;;;;;;4986933;28;20022;-83
2024/03/30 08:40:59;;;;;;;9.98;1.73;;;14.20;99.90;;;;;;4986083;28;20034;-83
2024/03/30 08:43:27;;;;;;;14.35;1.70;;;14.60;99.90;;;;;;4985763;28;20490;-84
2024/03/30 08:45:54;;;;;;;15.88;2.58;;;14.70;99.90;;;;;;4986261;28;20390;-84
2024/03/30 08:48:19;;;;;;;14.85;2.03;;;15.00;99.90;;;;;;4995570;28;20026;-84
2024/03/30 08:50:46;;;;;;;9.63;2.03;;;15.30;99.90;;;;;;5002354;28;20027;-84
2024/03/30 08:53:11;;;;;;;6.57;2.60;;;15.40;99.90;;;;;;5002884;28;20042;-84
2024/03/30 08:55:38;;;;;;;9.35;1.88;;;15.60;99.90;;;;;;5009098;28;20026;-84
2024/03/30 08:58:04;;;;;;;7.38;2.10;;;15.80;99.90;;;;;;5003005;28;20486;-84
2024/03/30 09:00:30;;;;;;;12.52;3.00;;;15.80;99.90;;;;;;5002245;28;20026;-84
2024/03/30 09:02:56;;;;;;;14.93;3.25;;;15.90;99.90;;;;;;4993346;28;20030;-84
2024/03/30 09:05:22;;;;;;;12.65;3.05;;;16.00;99.90;;;;;;4980233;28;20030;-84
2024/03/30 09:07:48;;;;;;;9.68;2.35;;;16.20;99.90;;;;;;5012646;28;20529;-85
2024/03/30 09:10:14;;;;;;;11.30;1.83;;;16.40;99.90;;;;;;4985320;28;20015;-84
2024/03/30 09:12:40;;;;;;;9.45;2.17;;;16.60;99.90;;;;;;5003560;28;20556;-84
2024/03/30 09:15:06;;;;;;;12.75;3.58;;;16.80;99.90;;;;;;4977255;28;20101;-84
2024/03/30 09:17:32;;;;;;;12.55;2.60;;;16.70;99.90;;;;;;4996607;28;20054;-85
2024/03/30 09:19:59;;;;;;;6.95;2.03;;;16.70;99.90;;;;;;4988195;28;20037;-84
2024/03/30 09:22:25;;;;;;;9.95;2.88;;;16.80;99.90;;;;;;5002940;28;20026;-84
2024/03/30 09:24:51;;;;;;;10.82;2.60;;;16.90;99.90;;;;;;5001956;28;20125;-84
2024/03/30 09:27:17;;;;;;;12.13;2.97;;;16.90;99.90;;;;;;4984383;28;20018;-84
2024/03/30 09:29:42;;;;;;;13.80;2.15;;;16.80;99.90;;;;;;5002565;28;20026;-85
2024/03/30 09:32:08;;;;;;;14.60;2.33;;;16.80;99.90;;;;;;5009206;28;20038;-85
2024/03/30 09:34:34;;;;;;;15.90;3.95;;;16.90;99.90;;;;;;4986533;28;20105;-84
2024/03/30 09:36:59;;;;;;;9.13;2.50;;;16.90;99.90;;;;;;5000585;28;20050;-84
2024/03/30 09:39:25;;;;;;;12.60;2.30;;;16.90;99.90;;;;;;4993872;28;20026;-84
2024/03/30 09:41:55;;;;;;;14.80;3.80;;;16.90;99.90;;;;;;4993835;28;20030;-85
2024/03/30 09:44:20;;;;;;;12.30;2.17;;;16.90;99.90;;;;;;5004871;28;20023;-86
2024/03/30 09:46:48;;;;;;;15.52;3.17;;;16.90;99.90;;;;;;4988387;28;20048;-86
2024/03/30 09:49:15;;;;;;;20.35;2.88;;;16.90;99.90;;;;;;4984466;28;20027;-86
2024/03/30 09:51:43;;;;;;;20.98;4.20;;;17.00;99.90;;;;;;4984567;28;20126;-86
2024/03/30 09:54:11;;;;;;;25.92;2.70;;;17.20;99.90;;;;;;4976309;28;20425;-86
2024/03/30 09:56:42;;;;;;;24.88;3.88;;;17.40;99.90;;;;;;4985471;28;20035;-86
2024/03/30 09:59:08;;;;;;;18.95;3.90;;;17.60;99.90;;;;;;4973205;28;20030;-86
2024/03/30 10:01:34;;;;;;;27.52;3.25;;;17.90;99.90;;;;;;4983230;28;20034;-85
2024/03/30 10:04:00;;;;;;;22.00;3.55;;;18.00;99.90;;;;;;4984042;28;20049;-85
2024/03/30 10:06:29;;;;;;;21.40;3.83;;;18.10;99.90;;;;;;4999987;28;20042;-86
2024/03/30 10:09:03;;;;;;;20.73;3.45;;;18.10;99.90;;;;;;4998295;28;20042;-85
2024/03/30 10:11:33;;;;;;;18.70;2.90;;;18.30;99.90;;;;;;4995226;28;20026;-86
2024/03/30 10:14:24;;;;;;;14.73;4.10;;;18.10;99.90;;;;;;4997534;28;20030;-86
2024/03/30 10:16:50;;;;;;;11.68;2.55;;;18.00;99.90;;;;;;4970059;28;20498;-86
2024/03/30 10:19:17;;;;;;;22.48;4.97;;;18.20;99.90;;;;;;5000735;28;20041;-86
2024/03/30 10:21:44;;;;;;;18.15;3.17;;;18.30;99.70;;;;;;4991899;28;20023;-86
2024/03/30 10:24:12;;;;;;;20.30;3.20;;;18.40;99.90;;;;;;4984506;28;20018;-86
2024/03/30 10:26:40;;;;;;;19.35;3.53;;;18.40;99.90;;;;;;4986640;28;20034;-86
2024/03/30 10:29:06;;;;;;;14.43;2.90;;;18.40;99.90;;;;;;5000718;28;20293;-86
2024/03/30 10:31:31;;;;;;;14.52;2.80;;;18.40;99.90;;;;;;4975752;28;20035;-86
2024/03/30 10:33:59;;;;;;;20.17;2.63;;;18.20;99.60;;;;;;4993462;28;20080;-86
2024/03/30 10:36:27;;;;;;;19.95;3.60;;;18.00;99.80;;;;;;4990880;28;20030;-85
2024/03/30 10:38:52;;;;;;;16.67;3.85;;;17.70;99.60;;;;;;4986143;28;20026;-85
2024/03/30 10:41:18;;;;;;;26.35;4.47;;;17.80;99.90;;;;;;4984089;28;20022;-86
2024/03/30 10:43:44;;;;;;;15.93;3.67;;;17.70;99.90;;;;;;5001980;28;20022;-85
2024/03/30 10:46:12;;;;;;;23.88;2.80;;;17.60;99.90;;;;;;4998826;28;20029;-86
2024/03/30 10:48:38;;;;;;;19.25;3.03;;;17.40;99.90;;;;;;4995915;28;20026;-86
2024/03/30 10:51:04;;;;;;;24.73;4.28;;;17.30;99.90;;;;;;4984296;28;20030;-86
2024/03/30 10:53:30;;;;;;;18.92;3.63;;;17.20;99.90;;;;;;4983493;28;20057;-86
2024/03/30 10:55:56;;;;;;;15.20;4.47;;;17.10;99.90;;;;;;4983557;28;20090;-85
2024/03/30 10:58:21;;;;;;;31.15;5.15;;;17.10;99.90;;;;;;4991814;28;20030;-86
2024/03/30 11:00:48;;;;;;;17.10;3.45;;;17.00;99.90;;;;;;4989366;28;20410;-85
2024/03/30 11:03:17;;;;;;;18.00;5.03;;;17.10;99.90;;;;;;4984219;28;20022;-85
2024/03/30 11:05:44;;;;;;;35.63;8.55;;;16.90;99.90;;;;;;4985952;28;20019;-85
2024/03/30 11:08:11;;;;;;;25.15;5.78;;;16.80;99.90;;;;;;4981895;28;20054;-85
2024/03/30 11:10:37;;;;;;;35.75;6.47;;;16.60;99.90;;;;;;4986719;28;20053;-86
2024/03/30 11:13:04;;;;;;;22.70;5.32;;;16.50;99.90;;;;;;4997353;28;20031;-86
2024/03/30 11:15:34;;;;;;;23.15;6.32;;;16.40;99.90;;;;;;4972446;28;20554;-85
2024/03/30 11:18:02;;;;;;;32.30;5.97;;;16.20;99.90;;;;;;4988254;28;20027;-85
2024/03/30 11:20:44;;;;;;;31.58;4.57;;;16.10;99.90;;;;;;4986702;28;20027;-85
2024/03/30 11:23:25;;;;;;;27.13;5.32;;;16.10;99.90;;;;;;5004451;28;20090;-85
2024/03/30 11:26:03;;;;;;;34.47;7.18;;;16.00;99.90;;;;;;4987203;28;20130;-86
2024/03/30 11:28:36;;;;;;;43.45;5.88;;;16.00;99.90;;;;;;4987162;28;20057;-85
2024/03/30 11:31:24;;;;;;;41.60;5.57;;;16.10;99.90;;;;;;5003027;28;20022;-85
2024/03/30 11:34:20;;;;;;;28.13;5.63;;;16.10;99.90;;;;;;5005355;28;20503;-85
2024/03/30 11:36:56;;;;;;;28.17;4.50;;;16.00;99.90;;;;;;5002160;28;20027;-85
2024/03/30 11:39:28;;;;;;;37.65;4.57;;;16.10;99.90;;;;;;4995003;28;20038;-85
2024/03/30 11:42:00;;;;;;;36.15;5.93;;;16.20;99.90;;;;;;4992377;28;20038;-85
2024/03/30 11:44:28;;;;;;;45.63;12.70;;;16.20;99.90;;;;;;4986770;28;20023;-85
2024/03/30 11:46:55;;;;;;;50.85;13.02;;;16.20;99.90;;;;;;4986503;28;20038;-85
2024/03/30 11:49:22;;;;;;;67.18;15.88;;;16.20;99.90;;;;;;4986123;28;20486;-85
2024/03/30 11:51:50;;;;;;;44.60;10.43;;;16.20;99.90;;;;;;4993425;28;20022;-86
2024/03/30 11:54:22;;;;;;;197.98;55.17;;;16.20;99.90;;;;;;4986824;28;20103;-85
2024/03/30 11:57:16;;;;;;;50.42;12.40;;;16.30;99.90;;;;;;4986658;28;20026;-85
2024/03/30 11:59:48;;;;;;;179.85;43.70;;;16.20;99.90;;;;;;4986335;28;20031;-85
2024/03/30 12:02:14;;;;;;;131.15;30.70;;;16.20;99.90;;;;;;4985898;28;20038;-86
2024/03/30 12:04:44;;;;;;;50.58;9.30;;;16.20;99.90;;;;;;4986192;28;20037;-85
2024/03/30 12:07:11;;;;;;;77.38;16.83;;;16.10;99.90;;;;;;5002096;28;20019;-85
2024/03/30 12:09:36;;;;;;;51.65;9.63;;;16.10;99.90;;;;;;4986999;28;20048;-85
2024/03/30 12:12:17;;;;;;;54.20;11.63;;;16.10;99.90;;;;;;4995089;28;20029;-85
2024/03/30 12:14:45;;;;;;;47.55;9.85;;;16.10;99.90;;;;;;5002464;28;20085;-85
2024/03/30 12:17:11;;;;;;;86.25;17.17;;;16.10;99.90;;;;;;4982385;28;20045;-86
2024/03/30 12:19:39;;;;;;;71.60;16.70;;;16.10;99.90;;;;;;4986124;28;20578;-85
2024/03/30 12:22:04;;;;;;;53.63;13.48;;;16.10;99.90;;;;;;4983551;28;20731;-85
2024/03/30 12:24:34;;;;;;;63.20;11.23;;;16.10;99.90;;;;;;5003031;28;20069;-85
2024/03/30 12:27:00;;;;;;;50.22;11.10;;;16.00;99.90;;;;;;4985910;28;20029;-85
2024/03/30 12:29:25;;;;;;;38.42;6.70;;;16.00;99.90;;;;;;4986004;28;20026;-86
2024/03/30 12:31:51;;;;;;;36.53;6.60;;;16.10;99.90;;;;;;5003730;28;20031;-86
2024/03/30 12:34:17;;;;;;;30.52;7.78;;;16.10;99.90;;;;;;4988796;28;20034;-86
2024/03/30 12:36:45;;;;;;;35.70;7.53;;;16.10;99.90;;;;;;5003927;28;20577;-85
2024/03/30 12:39:11;;;;;;;50.50;10.18;;;16.20;99.90;;;;;;4984280;23;20495;-53
2024/03/30 12:41:37;;;;;;;50.05;8.65;;;16.10;99.90;;;;;;4993189;28;20030;-55
2024/03/30 12:44:04;;;;;;;50.60;7.80;;;16.00;99.90;;;;;;4993658;28;20029;-57
2024/03/30 12:46:33;;;;;;;55.28;8.13;;;16.00;99.90;;;;;;4985933;28;20023;-56
2024/03/30 12:49:02;;;;;;;43.65;8.63;;;15.90;99.90;;;;;;4973675;28;20026;-56